Time;durP1;ratioP1;P1;durP2;ratioP2;P2;SDS_P1;SDS_P2;PMS_P1;PMS_P2;Temp;Humidity;BMP_temperature;BMP_pressure;BME280_temperature;BME280_humidity;BME280_pressure;Samples;Min_cycle;Max_cycle;Signal;HPM_P1;HPM_P2
2020/12/19 00:01:08;;;;;;;0.00;0.00;;;;;;;10.30;100.00;98186.41;4878656;29;20076;-81
2020/12/19 00:04:11;;;;;;;0.00;0.00;;;;;;;10.32;100.00;98190.22;4879050;29;20147;-81
2020/12/19 00:07:13;;;;;;;0.10;0.00;;;;;;;10.36;100.00;98189.94;4878354;29;20513;-81
2020/12/19 00:10:16;;;;;;;0.05;0.03;;;;;;;10.34;100.00;98181.34;4878903;29;20093;-81
2020/12/19 00:13:19;;;;;;;0.03;0.00;;;;;;;10.30;100.00;98173.28;4878959;29;20128;-81
2020/12/19 00:16:22;;;;;;;0.98;0.28;;;;;;;10.28;100.00;98167.47;4878826;29;20068;-81
2020/12/19 00:19:24;;;;;;;0.40;0.20;;;;;;;10.26;100.00;98181.13;4878946;29;20120;-81
2020/12/19 00:22:27;;;;;;;0.10;0.00;;;;;;;10.24;100.00;98158.66;4867308;29;20574;-82
2020/12/19 00:25:30;;;;;;;0.10;0.10;;;;;;;10.22;100.00;98155.59;4866906;29;20048;-81
2020/12/19 00:28:33;;;;;;;0.00;0.00;;;;;;;10.22;100.00;98152.81;4878423;29;20056;-81
2020/12/19 00:31:38;;;;;;;0.55;0.10;;;;;;;10.22;100.00;98152.06;4870194;29;20165;-82
2020/12/19 00:34:41;;;;;;;0.25;0.05;;;;;;;10.20;100.00;98133.09;4882306;29;20127;-81
2020/12/19 00:37:44;;;;;;;0.08;0.08;;;;;;;10.21;100.00;98140.19;4881588;29;20109;-81
2020/12/19 00:40:46;;;;;;;0.00;0.00;;;;;;;10.24;100.00;98143.97;4881943;29;20509;-81
2020/12/19 00:43:49;;;;;;;1.85;0.50;;;;;;;10.22;100.00;98147.25;4870453;29;20052;-81
2020/12/19 00:46:52;;;;;;;0.30;0.10;;;;;;;10.26;100.00;98142.19;4881690;29;20078;-81
2020/12/19 00:49:55;;;;;;;0.10;0.10;;;;;;;10.21;100.00;98129.06;4881748;29;20048;-81
2020/12/19 00:52:58;;;;;;;0.25;0.15;;;;;;;10.23;100.00;98120.97;4881896;29;20121;-81
2020/12/19 00:56:00;;;;;;;0.10;0.00;;;;;;;10.24;100.00;98138.41;4881706;29;20575;-80
2020/12/19 00:59:04;;;;;;;2.70;0.30;;;;;;;10.27;100.00;98127.00;4870038;29;20470;-81
2020/12/19 01:02:07;;;;;;;0.00;0.00;;;;;;;10.26;100.00;98119.94;4881724;29;20068;-81
2020/12/19 01:05:10;;;;;;;0.40;0.10;;;;;;;10.24;100.00;98114.13;4881749;29;20067;-81
2020/12/19 01:08:12;;;;;;;0.10;0.00;;;;;;;10.21;100.00;98123.50;4881714;29;20525;-80
2020/12/19 01:11:22;;;;;;;0.30;0.17;;;;;;;10.19;100.00;98114.91;4881120;29;20079;-80
2020/12/19 01:14:25;;;;;;;1.55;0.63;;;;;;;10.13;100.00;98128.09;4881380;29;20123;-81
2020/12/19 01:17:28;;;;;;;0.00;0.00;;;;;;;10.08;100.00;98123.28;4881340;29;20051;-80
2020/12/19 01:20:30;;;;;;;0.00;0.00;;;;;;;10.05;100.00;98132.66;4881277;29;20053;-80
2020/12/19 01:23:33;;;;;;;0.38;0.00;;;;;;;10.00;100.00;98125.13;4881563;29;20569;-81
2020/12/19 01:26:36;;;;;;;0.15;0.00;;;;;;;9.97;100.00;98120.56;4881165;29;20048;-81
2020/12/19 01:29:39;;;;;;;0.13;0.13;;;;;;;9.92;100.00;98119.31;4881068;29;20093;-80
2020/12/19 01:32:42;;;;;;;2.17;0.10;;;;;;;9.91;100.00;98125.41;4881566;29;20422;-80
2020/12/19 01:35:45;;;;;;;1.23;0.35;;;;;;;9.89;100.00;98114.03;4882003;29;20122;-81
2020/12/19 01:38:50;;;;;;;1.80;0.47;;;;;;;9.87;100.00;98116.59;4881845;29;20048;-80
2020/12/19 01:41:53;;;;;;;0.73;0.40;;;;;;;9.87;100.00;98116.59;4880658;29;20052;-81
2020/12/19 01:44:56;;;;;;;4.07;0.25;;;;;;;9.86;100.00;98106.72;4881016;29;20072;-81
2020/12/19 01:48:08;;;;;;;3.75;0.40;;;;;;;9.85;100.00;98127.47;4881090;29;20092;-80
2020/12/19 01:51:12;;;;;;;0.25;0.15;;;;;;;9.84;100.00;98128.72;4881153;29;20112;-81
2020/12/19 01:54:15;;;;;;;4.82;0.38;;;;;;;9.81;100.00;98135.31;4861924;29;20407;-81
2020/12/19 01:57:18;;;;;;;1.73;0.17;;;;;;;9.76;100.00;98133.31;4861899;29;20088;-83
2020/12/19 02:00:21;;;;;;;7.90;0.20;;;;;;;9.73;100.00;98134.31;4862188;29;20544;-81
2020/12/19 02:03:24;;;;;;;0.10;0.00;;;;;;;9.70;100.00;98132.56;4862185;29;20517;-82
2020/12/19 02:06:28;;;;;;;0.00;0.00;;;;;;;9.64;100.00;98137.38;4862078;29;20138;-82
2020/12/19 02:09:36;;;;;;;0.03;0.00;;;;;;;9.59;100.00;98130.59;4862040;29;20532;-81
2020/12/19 02:12:39;;;;;;;0.60;0.25;;;;;;;9.53;100.00;98134.66;4862023;29;20511;-81
2020/12/19 02:15:44;;;;;;;0.20;0.17;;;;;;;9.43;100.00;98122.28;4850386;29;20194;-81
2020/12/19 02:18:47;;;;;;;5.57;0.38;;;;;;;9.28;100.00;98121.84;4862340;29;20080;-86
2020/12/19 02:21:50;;;;;;;6.22;0.20;;;;;;;9.11;100.00;98117.09;4863948;29;20617;-83
2020/12/19 02:24:52;;;;;;;0.00;0.00;;;;;;;8.99;100.00;98112.81;4857361;29;20533;-84
2020/12/19 02:27:56;;;;;;;0.28;0.28;;;;;;;8.89;100.00;98110.78;4854509;29;20750;-84
2020/12/19 02:30:59;;;;;;;0.00;0.00;;;;;;;8.82;100.00;98114.84;4854388;29;20098;-83
2020/12/19 02:34:02;;;;;;;0.35;0.10;;;;;;;8.78;100.00;98103.25;4869418;29;20052;-84
2020/12/19 02:37:05;;;;;;;0.00;0.00;;;;;;;8.74;100.00;98096.44;4865214;29;20044;-84
2020/12/19 02:40:08;;;;;;;0.00;0.00;;;;;;;8.77;100.00;98087.84;4852837;29;20528;-84
2020/12/19 02:43:11;;;;;;;0.00;0.00;;;;;;;8.79;100.00;98099.19;4850169;29;20138;-85
2020/12/19 02:46:14;;;;;;;0.00;0.00;;;;;;;8.81;100.00;98093.16;4850166;29;20052;-84
2020/12/19 02:49:17;;;;;;;0.10;0.00;;;;;;;8.79;100.00;98099.19;4850043;29;20120;-85
2020/12/19 02:52:19;;;;;;;0.73;0.28;;;;;;;8.79;100.00;98110.28;4867890;29;20079;-85
2020/12/19 02:55:22;;;;;;;0.00;0.00;;;;;;;8.76;100.00;98105.00;4879871;29;20148;-85
2020/12/19 02:58:25;;;;;;;0.68;0.25;;;;;;;8.79;100.00;98109.56;4868306;29;20052;-84
2020/12/19 03:01:30;;;;;;;0.57;0.10;;;;;;;8.77;100.00;98098.94;4879955;29;20463;-84
2020/12/19 03:04:32;;;;;;;1.08;0.10;;;;;;;8.74;100.00;98088.09;4879677;29;20048;-83
2020/12/19 03:07:35;;;;;;;0.20;0.20;;;;;;;8.73;100.00;98090.13;4879398;29;20076;-83
2020/12/19 03:10:38;;;;;;;0.08;0.00;;;;;;;8.71;100.00;98095.41;4879284;29;20461;-84
2020/12/19 03:13:41;;;;;;;0.00;0.00;;;;;;;8.70;100.00;98088.38;4879383;29;20099;-84
2020/12/19 03:16:44;;;;;;;0.03;0.00;;;;;;;8.73;100.00;98089.34;4868195;29;20105;-84
2020/12/19 03:19:47;;;;;;;0.17;0.10;;;;;;;8.74;100.00;98086.09;4879345;29;20109;-84
2020/12/19 03:22:50;;;;;;;0.52;0.17;;;;;;;8.78;100.00;98083.06;4867901;29;20127;-84
2020/12/19 03:25:53;;;;;;;0.20;0.00;;;;;;;8.78;100.00;98077.50;4879491;29;20087;-84
2020/12/19 03:28:56;;;;;;;0.10;0.10;;;;;;;8.76;100.00;98072.47;4867573;29;20048;-84
2020/12/19 03:31:59;;;;;;;0.63;0.10;;;;;;;8.80;100.00;98072.97;4879083;29;20052;-84
2020/12/19 03:35:02;;;;;;;0.65;0.15;;;;;;;8.83;100.00;98077.50;4879034;29;20104;-83
2020/12/19 03:38:06;;;;;;;1.85;0.10;;;;;;;8.80;100.00;98070.19;4879358;29;20056;-83
2020/12/19 03:41:09;;;;;;;0.00;0.00;;;;;;;8.79;100.00;98065.88;4878951;29;20056;-83
2020/12/19 03:44:12;;;;;;;0.10;0.00;;;;;;;8.77;100.00;98062.84;4879356;29;20089;-83
2020/12/19 03:47:15;;;;;;;0.65;0.10;;;;;;;8.75;100.00;98054.28;4879266;29;20045;-83
2020/12/19 03:50:17;;;;;;;1.27;0.00;;;;;;;8.75;100.00;98059.84;4867471;29;20064;-83
2020/12/19 03:53:20;;;;;;;0.15;0.00;;;;;;;8.72;100.00;98060.88;4878866;29;20083;-83
2020/12/19 03:56:23;;;;;;;0.10;0.00;;;;;;;8.70;100.00;98063.41;4878761;29;20581;-84
2020/12/19 03:59:26;;;;;;;0.10;0.00;;;;;;;8.66;100.00;98057.34;4878887;29;20451;-84
2020/12/19 04:02:29;;;;;;;0.00;0.00;;;;;;;8.66;100.00;98062.91;4878277;29;20047;-83
2020/12/19 04:05:32;;;;;;;0.20;0.13;;;;;;;8.64;100.00;98059.84;4878884;29;20504;-83
2020/12/19 04:08:35;;;;;;;0.10;0.10;;;;;;;8.65;100.00;98055.06;4878690;29;20060;-83
2020/12/19 04:11:37;;;;;;;0.47;0.00;;;;;;;8.62;100.00;98050.53;4878536;29;20047;-83
2020/12/19 04:14:40;;;;;;;0.00;0.00;;;;;;;8.60;100.00;98042.69;4878767;29;20043;-83
2020/12/19 04:17:43;;;;;;;0.10;0.10;;;;;;;8.57;100.00;98037.41;4878414;29;20040;-84
2020/12/19 04:20:46;;;;;;;4.60;0.63;;;;;;;8.53;100.00;98032.13;4877372;29;20097;-83
2020/12/19 04:23:49;;;;;;;0.40;0.10;;;;;;;8.51;100.00;98045.72;4878405;29;20048;-84
2020/12/19 04:26:52;;;;;;;0.00;0.00;;;;;;;8.47;100.00;98038.94;4877828;29;20414;-84
2020/12/19 04:29:54;;;;;;;0.03;0.00;;;;;;;8.43;100.00;98038.41;4878634;29;20069;-84
2020/12/19 04:32:57;;;;;;;1.33;0.43;;;;;;;8.42;100.00;98015.50;4878758;29;20570;-84
2020/12/19 04:36:00;;;;;;;0.00;0.00;;;;;;;8.42;100.00;98021.03;4878535;29;20556;-84
2020/12/19 04:39:04;;;;;;;0.00;0.00;;;;;;;8.37;100.00;98016.25;4878493;29;20056;-83
2020/12/19 04:42:06;;;;;;;0.35;0.32;;;;;;;8.34;100.00;98020.03;4878392;29;20047;-84
2020/12/19 04:45:10;;;;;;;0.05;0.00;;;;;;;8.31;100.00;98043.22;4879420;29;20096;-84
2020/12/19 04:48:18;;;;;;;0.13;0.00;;;;;;;8.29;100.00;98040.94;4879149;29;20101;-87
2020/12/19 04:51:21;;;;;;;0.10;0.10;;;;;;;8.31;100.00;98040.47;4879019;29;20566;-85
2020/12/19 04:54:24;;;;;;;0.10;0.10;;;;;;;8.30;100.00;98034.16;4861943;29;20048;-86
2020/12/19 04:57:27;;;;;;;0.10;0.00;;;;;;;8.35;100.00;98032.63;4848808;29;20049;-82
2020/12/19 05:00:30;;;;;;;9.23;0.25;;;;;;;8.33;100.00;98026.84;4860058;29;20044;-82
2020/12/19 05:03:33;;;;;;;0.45;0.10;;;;;;;8.35;100.00;98027.84;4848400;29;20052;-82
2020/12/19 05:06:35;;;;;;;0.00;0.00;;;;;;;8.35;100.00;98000.13;4881166;29;20574;-82
2020/12/19 05:09:41;;;;;;;0.57;0.10;;;;;;;8.36;100.00;98003.63;4886594;29;20048;-83
2020/12/19 05:12:51;;;;;;;0.25;0.10;;;;;;;8.32;100.00;98008.69;4887593;29;20071;-82
2020/12/19 05:15:54;;;;;;;0.03;0.03;;;;;;;8.30;100.00;98009.19;4886230;29;20832;-83
2020/12/19 05:18:57;;;;;;;0.30;0.10;;;;;;;8.31;100.00;98026.59;4889553;29;20056;-83
2020/12/19 05:22:01;;;;;;;2.53;0.10;;;;;;;8.23;100.00;98017.22;4890357;29;20043;-81
2020/12/19 05:25:04;;;;;;;0.55;0.10;;;;;;;8.16;100.00;98020.50;4862935;29;20450;-83
2020/12/19 05:28:07;;;;;;;0.10;0.00;;;;;;;8.10;100.00;98023.25;4887543;29;20649;-83
2020/12/19 05:31:11;;;;;;;0.10;0.05;;;;;;;8.03;100.00;98018.25;4890354;29;20083;-83
2020/12/19 05:34:15;;;;;;;1.27;0.10;;;;;;;8.03;100.00;98034.13;4890990;29;20044;-82
2020/12/19 05:37:19;;;;;;;0.10;0.10;;;;;;;7.96;100.00;98029.81;4889721;29;20040;-84
2020/12/19 05:40:24;;;;;;;0.10;0.00;;;;;;;7.91;100.00;98027.78;4881052;29;20092;-85
2020/12/19 05:43:27;;;;;;;0.00;0.00;;;;;;;7.90;100.00;98036.63;4890593;29;20517;-84
2020/12/19 05:46:35;;;;;;;0.35;0.10;;;;;;;7.86;100.00;98034.06;4879365;29;20060;-85
2020/12/19 05:49:38;;;;;;;0.20;0.10;;;;;;;7.86;100.00;98030.56;4885235;29;20092;-83
2020/12/19 05:52:42;;;;;;;0.30;0.20;;;;;;;7.85;100.00;98031.81;4889771;29;20096;-84
2020/12/19 05:55:45;;;;;;;0.20;0.10;;;;;;;7.82;100.00;98022.47;4868925;29;20113;-84
2020/12/19 05:58:53;;;;;;;0.10;0.10;;;;;;;7.83;100.00;98026.00;4880727;29;20059;-82
2020/12/19 06:01:56;;;;;;;1.95;0.40;;;;;;;7.82;100.00;98019.72;4880522;29;20048;-82
2020/12/19 06:05:01;;;;;;;3.22;0.55;;;;;;;7.91;100.00;98038.09;4869127;29;20047;-82
2020/12/19 06:08:06;;;;;;;0.52;0.10;;;;;;;7.98;100.00;98023.75;4880697;29;20100;-83
2020/12/19 06:11:13;;;;;;;0.17;0.10;;;;;;;8.01;100.00;98025.53;4880533;29;20044;-82
2020/12/19 06:14:25;;;;;;;0.77;0.20;;;;;;;7.95;100.00;98022.00;4880777;29;20525;-84
2020/12/19 06:17:52;;;;;;;0.20;0.10;;;;;;;7.92;100.00;98031.31;4880550;29;20052;-84
2020/12/19 06:20:56;;;;;;;0.20;0.10;;;;;;;7.87;100.00;98024.50;4880918;29;20052;-82
2020/12/19 06:24:00;;;;;;;0.85;0.30;;;;;;;7.85;100.00;98023.50;4869056;29;20057;-82
2020/12/19 06:27:05;;;;;;;1.48;0.57;;;;;;;7.87;100.00;98032.81;4879778;29;20079;-83
2020/12/19 06:30:28;;;;;;;0.68;0.40;;;;;;;7.91;100.00;98038.88;4879881;29;20052;-84
2020/12/19 06:33:36;;;;;;;2.20;0.45;;;;;;;7.85;100.00;98040.13;4879943;29;20051;-83
2020/12/19 06:36:47;;;;;;;1.05;0.20;;;;;;;7.88;100.00;98033.59;4880595;29;20064;-83
2020/12/19 06:40:08;;;;;;;2.22;0.40;;;;;;;7.92;100.00;98034.84;4880291;29;20418;-83
2020/12/19 06:43:14;;;;;;;0.82;0.17;;;;;;;7.95;100.00;98033.84;4880505;29;20512;-82
2020/12/19 06:46:30;;;;;;;0.05;0.03;;;;;;;8.03;100.00;98045.19;4880224;29;20048;-83
2020/12/19 06:49:36;;;;;;;1.85;0.30;;;;;;;8.06;100.00;98044.94;4868461;29;20128;-84
2020/12/19 06:52:39;;;;;;;0.50;0.10;;;;;;;8.07;100.00;98040.16;4880135;29;20516;-82
2020/12/19 06:55:42;;;;;;;1.45;0.10;;;;;;;8.03;100.00;98045.19;4879343;29;20063;-84
2020/12/19 06:58:59;;;;;;;1.77;0.63;;;;;;;7.91;100.00;98043.66;4879882;29;20040;-83
2020/12/19 07:02:19;;;;;;;0.63;0.25;;;;;;;7.81;100.00;98047.94;4879528;29;20060;-85
2020/12/19 07:05:29;;;;;;;0.28;0.10;;;;;;;7.79;100.00;98037.34;4879423;29;20048;-82
2020/12/19 07:08:32;;;;;;;1.52;0.60;;;;;;;7.74;100.00;98034.56;4878765;29;20068;-83
2020/12/19 07:11:35;;;;;;;0.82;0.35;;;;;;;7.76;100.00;98034.81;4879387;29;20052;-83
2020/12/19 07:14:42;;;;;;;6.32;0.25;;;;;;;7.70;100.00;98045.13;4879446;29;20063;-83
2020/12/19 07:17:48;;;;;;;2.05;0.63;;;;;;;7.60;100.00;98042.56;4879291;29;20047;-83
2020/12/19 07:21:00;;;;;;;1.48;0.57;;;;;;;7.48;100.00;98046.56;4878634;29;20096;-83
2020/12/19 07:24:04;;;;;;;0.85;0.20;;;;;;;7.51;100.00;98053.13;4879370;29;20100;-83
2020/12/19 07:27:06;;;;;;;1.48;0.10;;;;;;;7.47;100.00;98047.81;4879630;29;20104;-83
2020/12/19 07:30:10;;;;;;;0.63;0.00;;;;;;;7.44;100.00;98065.44;4879228;29;20117;-83
2020/12/19 07:33:13;;;;;;;0.08;0.00;;;;;;;7.42;100.00;98059.66;4879407;29;20422;-84
2020/12/19 07:36:18;;;;;;;2.28;0.70;;;;;;;7.35;100.00;98071.19;4879136;29;20052;-84
2020/12/19 07:39:22;;;;;;;0.32;0.13;;;;;;;7.32;100.00;98077.72;4877999;29;20087;-83
2020/12/19 07:42:25;;;;;;;0.73;0.13;;;;;;;7.27;100.00;98081.25;4879173;29;20048;-84
2020/12/19 07:45:29;;;;;;;1.20;0.45;;;;;;;7.24;100.00;98085.00;4879007;29;20115;-83
2020/12/19 07:48:31;;;;;;;0.10;0.10;;;;;;;7.17;100.00;98071.59;4879127;29;20076;-83
2020/12/19 07:51:35;;;;;;;6.65;0.30;;;;;;;7.10;100.00;98077.63;4878823;29;20125;-83
2020/12/19 07:54:38;;;;;;;1.17;0.70;;;;;;;7.03;100.00;98078.09;4879105;29;20137;-83
2020/12/19 07:57:41;;;;;;;0.52;0.10;;;;;;;6.96;100.00;98078.53;4841832;29;20052;-85
2020/12/19 08:00:44;;;;;;;0.10;0.10;;;;;;;6.92;100.00;98083.56;4842190;29;20092;-82
2020/12/19 08:03:59;;;;;;;11.60;0.55;;;;;;;6.94;100.00;98091.34;4842356;29;20071;-83
2020/12/19 08:07:03;;;;;;;3.53;0.22;;;;;;;6.95;100.00;98099.19;4842091;29;20052;-83
2020/12/19 08:10:08;;;;;;;0.00;0.00;;;;;;;6.91;100.00;98084.06;4841896;29;20132;-84
2020/12/19 08:13:11;;;;;;;1.85;0.28;;;;;;;6.86;100.00;98102.13;4842004;29;20052;-83
2020/12/19 08:16:14;;;;;;;0.95;0.10;;;;;;;6.82;100.00;98107.13;4841197;29;20467;-84
2020/12/19 08:19:24;;;;;;;0.38;0.20;;;;;;;6.83;100.00;98111.41;4841289;29;20647;-84
2020/12/19 08:22:29;;;;;;;2.17;0.38;;;;;;;6.94;100.00;98107.94;4841418;29;20510;-84
2020/12/19 08:25:33;;;;;;;1.65;0.30;;;;;;;7.07;100.00;98116.59;4841045;29;20045;-84
2020/12/19 08:28:36;;;;;;;0.10;0.10;;;;;;;7.12;100.00;98119.41;4842040;29;20045;-84
2020/12/19 08:31:39;;;;;;;10.15;1.35;;;;;;;7.24;100.00;98120.97;4840841;29;20783;-80
2020/12/19 08:34:42;;;;;;;4.68;0.30;;;;;;;7.26;100.00;98121.25;4840490;29;20407;-82
2020/12/19 08:37:46;;;;;;;0.10;0.10;;;;;;;7.29;100.00;98127.81;4840665;29;20103;-82
2020/12/19 08:40:51;;;;;;;0.10;0.00;;;;;;;7.27;100.00;98125.53;4841538;29;20611;-84
2020/12/19 08:43:54;;;;;;;0.80;0.40;;;;;;;7.27;100.00;98120.00;4842637;29;20528;-84
2020/12/19 08:47:06;;;;;;;0.10;0.10;;;;;;;7.16;100.00;98125.47;4841106;29;20077;-83
2020/12/19 08:50:10;;;;;;;9.07;0.50;;;;;;;7.04;100.00;98129.41;4841583;29;20190;-83
2020/12/19 08:53:27;;;;;;;4.10;0.47;;;;;;;7.01;100.00;98129.66;4844919;29;20572;-81
2020/12/19 08:56:35;;;;;;;6.00;0.98;;;;;;;6.93;100.00;98129.31;4868048;29;20056;-81
2020/12/19 08:59:38;;;;;;;2.55;0.55;;;;;;;6.97;100.00;98135.41;4882253;29;20541;-84
2020/12/19 09:02:45;;;;;;;0.10;0.10;;;;;;;7.00;100.00;98134.41;4881417;29;20520;-84
2020/12/19 09:05:48;;;;;;;0.30;0.20;;;;;;;6.93;100.00;98148.69;4881993;29;20048;-83
2020/12/19 09:08:51;;;;;;;0.40;0.40;;;;;;;6.84;100.00;98151.66;4881275;29;20076;-84
2020/12/19 09:12:12;;;;;;;0.90;0.10;;;;;;;6.81;100.00;98149.88;4882010;29;20056;-84
2020/12/19 09:15:18;;;;;;;2.50;0.32;;;;;;;6.79;100.00;98136.53;4881264;29;20458;-84
2020/12/19 09:18:31;;;;;;;10.35;0.80;;;;;;;6.80;100.00;98151.09;4882051;29;20063;-82
2020/12/19 09:21:34;;;;;;;0.52;0.40;;;;;;;6.78;100.00;98150.84;4881608;29;20044;-80
2020/12/19 09:24:37;;;;;;;0.88;0.20;;;;;;;6.73;100.00;98157.09;4881647;29;20131;-82
2020/12/19 09:27:41;;;;;;;0.00;0.00;;;;;;;6.75;100.00;98162.91;4881393;29;20052;-80
2020/12/19 09:30:44;;;;;;;1.95;0.08;;;;;;;6.79;100.00;98169.75;4881504;29;20052;-79
2020/12/19 09:33:47;;;;;;;0.40;0.22;;;;;;;6.77;100.00;98177.78;4881272;29;20068;-80
2020/12/19 09:36:50;;;;;;;0.00;0.00;;;;;;;6.75;100.00;98168.44;4881694;29;20129;-81
2020/12/19 09:39:53;;;;;;;0.10;0.10;;;;;;;6.77;100.00;98177.00;4883406;29;20071;-82
2020/12/19 09:42:56;;;;;;;8.57;1.83;;;;;;;6.81;100.00;98183.06;4884059;29;20072;-82
2020/12/19 09:45:59;;;;;;;0.00;0.00;;;;;;;6.83;100.00;98180.56;4883578;29;20105;-81
2020/12/19 09:49:02;;;;;;;0.00;0.00;;;;;;;6.83;100.00;98188.88;4880238;29;20049;-83
2020/12/19 09:52:06;;;;;;;0.10;0.10;;;;;;;6.83;100.00;98202.69;4874831;29;20120;-82
2020/12/19 09:55:09;;;;;;;4.30;0.85;;;;;;;6.81;100.00;98199.66;4864691;29;20056;-81
2020/12/19 09:58:13;;;;;;;0.10;0.10;;;;;;;6.82;100.00;98201.19;4883156;29;20064;-81
2020/12/19 10:01:17;;;;;;;1.75;0.43;;;;;;;6.92;100.00;98202.53;4880835;29;20097;-82
2020/12/19 10:04:19;;;;;;;0.10;0.00;;;;;;;6.94;100.00;98202.81;4868917;29;20048;-83
2020/12/19 10:07:22;;;;;;;0.38;0.20;;;;;;;6.94;100.00;98199.28;4880456;29;20084;-82
2020/12/19 10:10:25;;;;;;;0.10;0.00;;;;;;;6.87;100.00;98201.25;4880309;29;20144;-82
2020/12/19 10:13:28;;;;;;;0.05;0.00;;;;;;;6.93;100.00;98206.81;4880591;29;20510;-82
2020/12/19 10:16:30;;;;;;;0.10;0.10;;;;;;;6.94;100.00;98213.88;4880362;29;20048;-82
2020/12/19 10:19:33;;;;;;;0.00;0.00;;;;;;;7.01;100.00;98213.44;4880238;29;20040;-82
2020/12/19 10:22:39;;;;;;;0.00;0.00;;;;;;;7.03;100.00;98208.16;4880567;29;20044;-83
2020/12/19 10:25:42;;;;;;;0.20;0.20;;;;;;;7.20;100.00;98211.81;4880306;29;20063;-82
2020/12/19 10:28:45;;;;;;;0.47;0.47;;;;;;;7.29;100.00;98217.16;4880501;29;20531;-82
2020/12/19 10:31:48;;;;;;;0.00;0.00;;;;;;;7.46;100.00;98215.25;4880434;29;20051;-82
2020/12/19 10:34:51;;;;;;;0.10;0.10;;;;;;;7.57;100.00;98204.25;4851674;29;20049;-81
2020/12/19 10:37:54;;;;;;;0.00;0.00;;;;;;;7.61;100.00;98226.94;4849822;29;20090;-82
2020/12/19 10:40:57;;;;;;;5.93;0.20;;;;;;;7.67;100.00;98202.03;4849335;29;20048;-82
2020/12/19 10:44:00;;;;;;;0.10;0.10;;;;;;;7.78;100.00;98217.94;4861408;29;20049;-83
2020/12/19 10:47:03;;;;;;;0.20;0.13;;;;;;;7.92;100.00;98228.88;4860617;29;20060;-84
2020/12/19 10:50:05;;;;;;;10.80;0.52;;;;;;;8.02;100.00;98221.84;4860811;29;20048;-82
2020/12/19 10:53:08;;;;;;;9.63;0.52;;;;;;;8.08;100.00;98228.16;4874301;29;20076;-83
2020/12/19 10:56:18;;;;;;;0.10;0.10;;;;;;;8.25;100.00;98233.78;4879118;29;20108;-82
2020/12/19 10:59:21;;;;;;;0.10;0.10;;;;;;;8.24;100.00;98235.03;4867986;29;20128;-84
2020/12/19 11:02:24;;;;;;;0.00;0.00;;;;;;;8.26;100.00;98229.78;4868291;29;20048;-82
2020/12/19 11:05:27;;;;;;;0.10;0.10;;;;;;;8.28;100.00;98230.03;4867860;29;20202;-83
2020/12/19 11:08:30;;;;;;;1.83;0.85;;;;;;;8.39;100.00;98216.19;4879905;29;20068;-83
2020/12/19 11:11:33;;;;;;;0.10;0.10;;;;;;;8.48;100.00;98221.53;4879742;29;20060;-83
2020/12/19 11:14:36;;;;;;;0.22;0.22;;;;;;;8.54;100.00;98222.28;4878988;29;20106;-84
2020/12/19 11:17:39;;;;;;;0.00;0.00;;;;;;;8.48;100.00;98218.75;4879421;29;20612;-83
2020/12/19 11:20:42;;;;;;;0.05;0.05;;;;;;;8.45;100.00;98208.66;4879570;29;20569;-83
2020/12/19 11:23:46;;;;;;;0.00;0.00;;;;;;;8.35;100.00;98204.59;4867955;29;20055;-82
2020/12/19 11:26:49;;;;;;;2.20;0.55;;;;;;;8.27;100.00;98211.88;4879415;29;20184;-83
2020/12/19 11:29:51;;;;;;;0.00;0.00;;;;;;;8.30;100.00;98219.19;4879660;29;20039;-83
2020/12/19 11:32:54;;;;;;;0.77;0.60;;;;;;;8.32;100.00;98211.91;4867791;29;20048;-81
2020/12/19 11:36:02;;;;;;;0.00;0.00;;;;;;;8.37;100.00;98202.06;4867320;29;20048;-81
2020/12/19 11:39:08;;;;;;;0.10;0.10;;;;;;;8.32;100.00;98200.03;4879173;29;20525;-81
2020/12/19 11:42:10;;;;;;;0.00;0.00;;;;;;;8.27;100.00;98203.56;4879112;29;20117;-81
2020/12/19 11:45:13;;;;;;;0.00;0.00;;;;;;;8.12;100.00;98203.00;4879023;29;20047;-82
2020/12/19 11:48:16;;;;;;;0.00;0.00;;;;;;;7.97;100.00;98199.66;4879058;29;20426;-82
2020/12/19 11:51:29;;;;;;;0.05;0.05;;;;;;;7.78;100.00;98187.47;4867473;29;20048;-81
2020/12/19 11:54:31;;;;;;;0.00;0.00;;;;;;;7.70;100.00;98200.28;4871727;29;20051;-82
2020/12/19 11:57:35;;;;;;;0.52;0.52;;;;;;;7.73;100.00;98204.84;4877758;29;20474;-82
2020/12/19 12:00:37;;;;;;;0.00;0.00;;;;;;;7.91;100.00;98204.41;4878648;29;20074;-82
2020/12/19 12:03:40;;;;;;;0.03;0.00;;;;;;;8.03;100.00;98214.28;4866730;29;20044;-81
2020/12/19 12:06:43;;;;;;;0.00;0.00;;;;;;;8.08;100.00;98210.75;4878794;29;20044;-83
2020/12/19 12:09:46;;;;;;;0.03;0.00;;;;;;;7.99;100.00;98213.78;4869358;29;20052;-82
2020/12/19 12:12:48;;;;;;;0.03;0.00;;;;;;;7.99;100.00;98216.53;4881162;29;20052;-82
2020/12/19 12:15:51;;;;;;;0.30;0.20;;;;;;;7.98;100.00;98215.78;4878537;29;20431;-82
2020/12/19 12:18:54;;;;;;;0.10;0.00;;;;;;;7.94;100.00;98209.72;4878537;29;20101;-82
2020/12/19 12:21:57;;;;;;;0.10;0.10;;;;;;;7.99;100.00;98216.53;4878155;29;20072;-83
2020/12/19 12:25:00;;;;;;;0.00;0.00;;;;;;;8.01;100.00;98225.13;4878977;29;20079;-83
2020/12/19 12:28:03;;;;;;;0.00;0.00;;;;;;;8.01;100.00;98227.91;4881286;29;20470;-83
2020/12/19 12:31:07;;;;;;;0.57;0.00;;;;;;;8.01;100.00;98236.22;4881901;29;20546;-83
2020/12/19 12:34:10;;;;;;;0.55;0.10;;;;;;;7.89;100.00;98234.63;4881845;29;20047;-81
2020/12/19 12:37:14;;;;;;;0.10;0.10;;;;;;;7.69;100.00;98216.13;4882086;29;20060;-81
2020/12/19 12:40:17;;;;;;;0.00;0.00;;;;;;;7.61;100.00;98221.41;4870333;29;20052;-80
2020/12/19 12:43:19;;;;;;;1.77;0.20;;;;;;;7.57;100.00;98220.88;4881524;29;20513;-80
2020/12/19 12:46:22;;;;;;;0.20;0.08;;;;;;;7.53;100.00;98220.34;4881844;29;20097;-80
2020/12/19 12:49:26;;;;;;;0.35;0.35;;;;;;;7.49;100.00;98230.88;4881821;29;20056;-81
2020/12/19 12:52:29;;;;;;;0.00;0.00;;;;;;;7.50;100.00;98224.09;4882377;29;20096;-82
2020/12/19 12:55:32;;;;;;;0.10;0.08;;;;;;;7.41;100.00;98217.97;4880432;29;20416;-81
2020/12/19 12:58:35;;;;;;;0.45;0.40;;;;;;;7.43;100.00;98232.84;4882119;29;20413;-81
2020/12/19 13:01:38;;;;;;;0.32;0.20;;;;;;;7.45;100.00;98230.34;4881793;29;20075;-80
2020/12/19 13:04:41;;;;;;;0.00;0.00;;;;;;;7.42;100.00;98239.66;4883990;29;20052;-81
2020/12/19 13:07:44;;;;;;;0.22;0.10;;;;;;;7.46;100.00;98242.19;4880619;29;20060;-81
2020/12/19 13:10:48;;;;;;;0.00;0.00;;;;;;;7.43;100.00;98238.38;4881264;29;20051;-80
2020/12/19 13:13:51;;;;;;;0.47;0.30;;;;;;;7.39;100.00;98243.41;4881393;29;20052;-80
2020/12/19 13:16:54;;;;;;;0.00;0.00;;;;;;;7.48;100.00;98245.22;4881652;29;20462;-80
2020/12/19 13:19:57;;;;;;;0.00;0.00;;;;;;;7.51;100.00;98244.25;4870045;29;20083;-80
2020/12/19 13:23:00;;;;;;;0.00;0.00;;;;;;;7.58;100.00;98255.63;4862771;29;20048;-81
2020/12/19 13:26:04;;;;;;;6.57;0.52;;;;;;;7.63;100.00;98251.38;4862268;29;20048;-80
2020/12/19 13:29:07;;;;;;;0.20;0.20;;;;;;;7.51;100.00;98252.56;4862282;29;20414;-81
2020/12/19 13:32:10;;;;;;;0.20;0.20;;;;;;;7.38;100.00;98258.53;4850438;29;20049;-81
2020/12/19 13:35:17;;;;;;;0.00;0.00;;;;;;;7.28;100.00;98251.63;4861905;29;20072;-81
2020/12/19 13:38:20;;;;;;;0.00;0.00;;;;;;;7.28;100.00;98257.16;4861897;29;20040;-80
2020/12/19 13:41:23;;;;;;;0.00;0.00;;;;;;;7.27;100.00;98266.75;4862598;29;20100;-81
2020/12/19 13:44:26;;;;;;;0.20;0.10;;;;;;;7.23;100.00;98257.91;4862617;29;20048;-79
2020/12/19 13:47:29;;;;;;;0.00;0.00;;;;;;;7.17;100.00;98259.84;4850870;29;20514;-79
2020/12/19 13:50:31;;;;;;;0.57;0.10;;;;;;;7.17;100.00;98259.84;4862424;29;20048;-80
2020/12/19 13:53:34;;;;;;;0.08;0.00;;;;;;;7.12;100.00;98263.34;4862627;29;20100;-80
2020/12/19 13:56:40;;;;;;;0.00;0.00;;;;;;;7.06;100.00;98262.50;4862728;29;20539;-80
2020/12/19 13:59:43;;;;;;;0.00;0.00;;;;;;;7.05;100.00;98263.78;4880918;29;20047;-80
2020/12/19 14:02:46;;;;;;;0.10;0.10;;;;;;;7.06;100.00;98259.75;4880833;29;20055;-79
2020/12/19 14:05:49;;;;;;;0.35;0.35;;;;;;;7.16;100.00;98268.66;4868760;29;20105;-82
2020/12/19 14:08:52;;;;;;;0.25;0.10;;;;;;;7.33;100.00;98267.53;4880509;29;20048;-82
2020/12/19 14:11:55;;;;;;;0.10;0.10;;;;;;;7.44;100.00;98277.94;4880686;29;20406;-82
2020/12/19 14:14:58;;;;;;;0.05;0.00;;;;;;;7.55;100.00;98278.78;4880544;29;20048;-82
2020/12/19 14:18:01;;;;;;;0.10;0.00;;;;;;;7.67;100.00;98273.31;4880523;29;20079;-80
2020/12/19 14:21:04;;;;;;;0.43;0.08;;;;;;;7.72;100.00;98272.56;4880690;29;20052;-81
2020/12/19 14:24:08;;;;;;;0.10;0.10;;;;;;;7.72;100.00;98269.81;4869158;29;20048;-79